sensor_id;sensor_type;location;lat;lon;timestamp;temperature;humidity
65374;SHT31;52070;53.760;9.678;2024-01-10T00:00:20;-2.75;95.57
65374;SHT31;52070;53.760;9.678;2024-01-10T00:02:47;-2.75;95.51
65374;SHT31;52070;53.760;9.678;2024-01-10T00:05:14;-2.72;95.49
65374;SHT31;52070;53.760;9.678;2024-01-10T00:07:41;-2.71;95.46
65374;SHT31;52070;53.760;9.678;2024-01-10T00:10:08;-2.71;95.46
65374;SHT31;52070;53.760;9.678;2024-01-10T00:12:35;-2.72;95.44
65374;SHT31;52070;53.760;9.678;2024-01-10T00:15:05;-2.64;95.43
65374;SHT31;52070;53.760;9.678;2024-01-10T00:17:32;-2.65;95.44
65374;SHT31;52070;53.760;9.678;2024-01-10T00:19:58;-2.62;95.40
65374;SHT31;52070;53.760;9.678;2024-01-10T00:22:25;-2.62;95.42
65374;SHT31;52070;53.760;9.678;2024-01-10T00:24:52;-2.61;95.46
65374;SHT31;52070;53.760;9.678;2024-01-10T00:27:19;-2.61;95.45
65374;SHT31;52070;53.760;9.678;2024-01-10T00:29:46;-2.61;95.49
65374;SHT31;52070;53.760;9.678;2024-01-10T00:32:14;-2.62;95.51
65374;SHT31;52070;53.760;9.678;2024-01-10T00:34:41;-2.61;95.52
65374;SHT31;52070;53.760;9.678;2024-01-10T00:37:08;-2.62;95.51
65374;SHT31;52070;53.760;9.678;2024-01-10T00:39:35;-2.61;95.57
65374;SHT31;52070;53.760;9.678;2024-01-10T00:42:02;-2.61;95.53
65374;SHT31;52070;53.760;9.678;2024-01-10T00:44:29;-2.57;95.55
65374;SHT31;52070;53.760;9.678;2024-01-10T00:46:56;-2.51;95.51
65374;SHT31;52070;53.760;9.678;2024-01-10T00:49:25;-2.40;95.52
65374;SHT31;52070;53.760;9.678;2024-01-10T00:51:51;-2.42;95.57
65374;SHT31;52070;53.760;9.678;2024-01-10T00:54:18;-2.47;95.56
65374;SHT31;52070;53.760;9.678;2024-01-10T00:56:45;-2.54;95.56
65374;SHT31;52070;53.760;9.678;2024-01-10T00:59:12;-2.58;95.64
65374;SHT31;52070;53.760;9.678;2024-01-10T01:01:39;-2.66;95.74
65374;SHT31;52070;53.760;9.678;2024-01-10T01:04:06;-2.68;95.79
65374;SHT31;52070;53.760;9.678;2024-01-10T01:06:34;-2.69;95.86
65374;SHT31;52070;53.760;9.678;2024-01-10T01:09:01;-2.71;95.98
65374;SHT31;52070;53.760;9.678;2024-01-10T01:11:28;-2.69;96.01
65374;SHT31;52070;53.760;9.678;2024-01-10T01:13:55;-2.71;96.04
65374;SHT31;52070;53.760;9.678;2024-01-10T01:16:22;-2.71;96.10
65374;SHT31;52070;53.760;9.678;2024-01-10T01:18:49;-2.66;96.12
65374;SHT31;52070;53.760;9.678;2024-01-10T01:21:16;-2.69;96.17
65374;SHT31;52070;53.760;9.678;2024-01-10T01:23:44;-2.72;96.14
65374;SHT31;52070;53.760;9.678;2024-01-10T01:26:11;-2.71;96.13
65374;SHT31;52070;53.760;9.678;2024-01-10T01:28:40;-2.61;96.11
65374;SHT31;52070;53.760;9.678;2024-01-10T01:31:06;-2.72;96.08
65374;SHT31;52070;53.760;9.678;2024-01-10T01:33:33;-2.79;96.04
65374;SHT31;52070;53.760;9.678;2024-01-10T01:36:01;-2.82;95.99
65374;SHT31;52070;53.760;9.678;2024-01-10T01:38:29;-2.86;96.02
65374;SHT31;52070;53.760;9.678;2024-01-10T01:40:57;-2.90;95.99
65374;SHT31;52070;53.760;9.678;2024-01-10T01:43:25;-2.97;96.00
65374;SHT31;52070;53.760;9.678;2024-01-10T01:45:53;-3.03;95.98
65374;SHT31;52070;53.760;9.678;2024-01-10T01:48:22;-3.10;95.96
65374;SHT31;52070;53.760;9.678;2024-01-10T01:50:52;-3.06;95.95
65374;SHT31;52070;53.760;9.678;2024-01-10T01:53:20;-3.10;95.93
65374;SHT31;52070;53.760;9.678;2024-01-10T01:55:47;-3.14;95.93
65374;SHT31;52070;53.760;9.678;2024-01-10T01:58:16;-3.16;95.92
65374;SHT31;52070;53.760;9.678;2024-01-10T02:00:44;-3.13;95.95
65374;SHT31;52070;53.760;9.678;2024-01-10T02:03:11;-3.23;95.95
65374;SHT31;52070;53.760;9.678;2024-01-10T02:05:38;-3.24;95.94
65374;SHT31;52070;53.760;9.678;2024-01-10T02:08:05;-3.26;95.90
65374;SHT31;52070;53.760;9.678;2024-01-10T02:10:32;-3.37;95.91
65374;SHT31;52070;53.760;9.678;2024-01-10T02:13:00;-3.36;95.87
65374;SHT31;52070;53.760;9.678;2024-01-10T02:15:28;-3.37;95.86
65374;SHT31;52070;53.760;9.678;2024-01-10T02:17:55;-3.42;95.90
65374;SHT31;52070;53.760;9.678;2024-01-10T02:20:22;-3.39;95.91
65374;SHT31;52070;53.760;9.678;2024-01-10T02:22:49;-3.39;95.91
65374;SHT31;52070;53.760;9.678;2024-01-10T02:25:18;-3.37;95.92
65374;SHT31;52070;53.760;9.678;2024-01-10T02:27:44;-3.42;95.92
65374;SHT31;52070;53.760;9.678;2024-01-10T02:30:12;-3.43;95.97
65374;SHT31;52070;53.760;9.678;2024-01-10T02:32:39;-3.39;95.95
65374;SHT31;52070;53.760;9.678;2024-01-10T02:35:07;-3.32;95.95
65374;SHT31;52070;53.760;9.678;2024-01-10T02:37:34;-3.33;95.93
65374;SHT31;52070;53.760;9.678;2024-01-10T02:40:01;-3.42;95.97
65374;SHT31;52070;53.760;9.678;2024-01-10T02:42:29;-3.29;95.88
65374;SHT31;52070;53.760;9.678;2024-01-10T02:44:56;-3.27;95.83
65374;SHT31;52070;53.760;9.678;2024-01-10T02:47:23;-3.34;95.78
65374;SHT31;52070;53.760;9.678;2024-01-10T02:49:50;-3.32;95.72
65374;SHT31;52070;53.760;9.678;2024-01-10T02:52:17;-3.33;95.64
65374;SHT31;52070;53.760;9.678;2024-01-10T02:54:45;-3.40;95.66
65374;SHT31;52070;53.760;9.678;2024-01-10T02:57:12;-3.37;95.62
65374;SHT31;52070;53.760;9.678;2024-01-10T02:59:40;-3.40;95.61
65374;SHT31;52070;53.760;9.678;2024-01-10T03:02:07;-3.55;95.62
65374;SHT31;52070;53.760;9.678;2024-01-10T03:04:34;-3.63;95.66
65374;SHT31;52070;53.760;9.678;2024-01-10T03:07:01;-3.54;95.65
65374;SHT31;52070;53.760;9.678;2024-01-10T03:09:28;-3.58;95.68
65374;SHT31;52070;53.760;9.678;2024-01-10T03:11:55;-3.44;95.61
65374;SHT31;52070;53.760;9.678;2024-01-10T03:14:22;-3.44;95.64
65374;SHT31;52070;53.760;9.678;2024-01-10T03:16:50;-3.46;95.62
65374;SHT31;52070;53.760;9.678;2024-01-10T03:19:18;-3.47;95.54
65374;SHT31;52070;53.760;9.678;2024-01-10T03:21:44;-3.48;95.51
65374;SHT31;52070;53.760;9.678;2024-01-10T03:24:11;-3.47;95.44
65374;SHT31;52070;53.760;9.678;2024-01-10T03:26:38;-3.47;95.37
65374;SHT31;52070;53.760;9.678;2024-01-10T03:29:05;-3.46;95.32
65374;SHT31;52070;53.760;9.678;2024-01-10T03:31:32;-3.50;95.26
65374;SHT31;52070;53.760;9.678;2024-01-10T03:34:00;-3.51;95.23
65374;SHT31;52070;53.760;9.678;2024-01-10T03:36:27;-3.55;95.21
65374;SHT31;52070;53.760;9.678;2024-01-10T03:38:54;-3.57;95.23
65374;SHT31;52070;53.760;9.678;2024-01-10T03:41:21;-3.61;95.26
65374;SHT31;52070;53.760;9.678;2024-01-10T03:43:48;-3.60;95.26
65374;SHT31;52070;53.760;9.678;2024-01-10T03:46:16;-3.57;95.21
65374;SHT31;52070;53.760;9.678;2024-01-10T03:48:43;-3.58;95.20
65374;SHT31;52070;53.760;9.678;2024-01-10T03:51:15;-3.60;95.11
65374;SHT31;52070;53.760;9.678;2024-01-10T03:53:43;-3.58;95.05
65374;SHT31;52070;53.760;9.678;2024-01-10T03:56:10;-3.60;95.06
65374;SHT31;52070;53.760;9.678;2024-01-10T03:58:37;-3.67;95.03
65374;SHT31;52070;53.760;9.678;2024-01-10T04:01:04;-3.60;94.95
65374;SHT31;52070;53.760;9.678;2024-01-10T04:03:32;-3.61;94.89
65374;SHT31;52070;53.760;9.678;2024-01-10T04:06:00;-3.61;94.78
65374;SHT31;52070;53.760;9.678;2024-01-10T04:08:28;-3.70;94.72
65374;SHT31;52070;53.760;9.678;2024-01-10T04:10:55;-3.70;94.59
65374;SHT31;52070;53.760;9.678;2024-01-10T04:13:23;-3.68;94.59
65374;SHT31;52070;53.760;9.678;2024-01-10T04:15:50;-3.74;94.56
65374;SHT31;52070;53.760;9.678;2024-01-10T04:18:17;-3.84;94.56
65374;SHT31;52070;53.760;9.678;2024-01-10T04:20:44;-3.81;94.52
65374;SHT31;52070;53.760;9.678;2024-01-10T04:23:11;-3.81;94.56
65374;SHT31;52070;53.760;9.678;2024-01-10T04:25:39;-3.88;94.65
65374;SHT31;52070;53.760;9.678;2024-01-10T04:28:06;-3.82;94.70
65374;SHT31;52070;53.760;9.678;2024-01-10T04:30:33;-3.85;94.77
65374;SHT31;52070;53.760;9.678;2024-01-10T04:33:00;-3.84;94.73
65374;SHT31;52070;53.760;9.678;2024-01-10T04:35:27;-3.82;94.76
65374;SHT31;52070;53.760;9.678;2024-01-10T04:37:54;-3.79;94.79
65374;SHT31;52070;53.760;9.678;2024-01-10T04:40:21;-3.71;94.78
65374;SHT31;52070;53.760;9.678;2024-01-10T04:42:49;-3.82;94.83
65374;SHT31;52070;53.760;9.678;2024-01-10T04:45:16;-3.88;94.76
65374;SHT31;52070;53.760;9.678;2024-01-10T04:47:43;-3.79;94.77
65374;SHT31;52070;53.760;9.678;2024-01-10T04:50:10;-3.79;94.74
65374;SHT31;52070;53.760;9.678;2024-01-10T04:52:37;-3.78;94.70
65374;SHT31;52070;53.760;9.678;2024-01-10T04:55:05;-3.74;94.70
65374;SHT31;52070;53.760;9.678;2024-01-10T04:57:33;-3.82;94.63
65374;SHT31;52070;53.760;9.678;2024-01-10T05:00:03;-3.79;94.57
65374;SHT31;52070;53.760;9.678;2024-01-10T05:02:29;-3.77;94.49
65374;SHT31;52070;53.760;9.678;2024-01-10T05:04:56;-3.87;94.40
65374;SHT31;52070;53.760;9.678;2024-01-10T05:07:22;-3.94;94.36
65374;SHT31;52070;53.760;9.678;2024-01-10T05:09:49;-3.99;94.39
65374;SHT31;52070;53.760;9.678;2024-01-10T05:12:16;-3.99;94.49
65374;SHT31;52070;53.760;9.678;2024-01-10T05:14:43;-3.99;94.45
65374;SHT31;52070;53.760;9.678;2024-01-10T05:17:11;-3.94;94.51
65374;SHT31;52070;53.760;9.678;2024-01-10T05:19:38;-3.97;94.58
65374;SHT31;52070;53.760;9.678;2024-01-10T05:22:06;-4.02;94.62
65374;SHT31;52070;53.760;9.678;2024-01-10T05:24:33;-3.99;94.62
65374;SHT31;52070;53.760;9.678;2024-01-10T05:27:01;-3.97;94.62
65374;SHT31;52070;53.760;9.678;2024-01-10T05:29:28;-3.85;94.63
65374;SHT31;52070;53.760;9.678;2024-01-10T05:31:56;-3.73;94.54
65374;SHT31;52070;53.760;9.678;2024-01-10T05:34:25;-3.75;94.43
65374;SHT31;52070;53.760;9.678;2024-01-10T05:36:52;-3.79;94.21
65374;SHT31;52070;53.760;9.678;2024-01-10T05:39:19;-3.91;94.12
65374;SHT31;52070;53.760;9.678;2024-01-10T05:41:47;-3.89;93.96
65374;SHT31;52070;53.760;9.678;2024-01-10T05:44:14;-3.89;93.85
65374;SHT31;52070;53.760;9.678;2024-01-10T05:46:41;-3.97;93.78
65374;SHT31;52070;53.760;9.678;2024-01-10T05:49:09;-3.92;93.72
65374;SHT31;52070;53.760;9.678;2024-01-10T05:51:37;-3.88;93.64
65374;SHT31;52070;53.760;9.678;2024-01-10T05:54:04;-3.99;93.58
65374;SHT31;52070;53.760;9.678;2024-01-10T05:56:32;-4.06;93.53
65374;SHT31;52070;53.760;9.678;2024-01-10T05:58:59;-4.12;93.50
65374;SHT31;52070;53.760;9.678;2024-01-10T06:01:27;-4.10;93.46
65374;SHT31;52070;53.760;9.678;2024-01-10T06:03:54;-4.15;93.50
65374;SHT31;52070;53.760;9.678;2024-01-10T06:06:22;-4.20;93.55
65374;SHT31;52070;53.760;9.678;2024-01-10T06:08:51;-4.16;93.58
65374;SHT31;52070;53.760;9.678;2024-01-10T06:11:19;-4.18;93.63
65374;SHT31;52070;53.760;9.678;2024-01-10T06:13:46;-4.20;93.63
65374;SHT31;52070;53.760;9.678;2024-01-10T06:16:13;-4.12;93.64
65374;SHT31;52070;53.760;9.678;2024-01-10T06:18:40;-4.08;93.58
65374;SHT31;52070;53.760;9.678;2024-01-10T06:21:06;-4.15;93.42
65374;SHT31;52070;53.760;9.678;2024-01-10T06:23:34;-4.20;93.23
65374;SHT31;52070;53.760;9.678;2024-01-10T06:26:02;-4.20;93.12
65374;SHT31;52070;53.760;9.678;2024-01-10T06:28:29;-4.15;93.15
65374;SHT31;52070;53.760;9.678;2024-01-10T06:30:56;-4.15;93.25
65374;SHT31;52070;53.760;9.678;2024-01-10T06:33:23;-4.10;93.39
65374;SHT31;52070;53.760;9.678;2024-01-10T06:35:51;-4.19;93.42
65374;SHT31;52070;53.760;9.678;2024-01-10T06:38:18;-4.19;93.57
65374;SHT31;52070;53.760;9.678;2024-01-10T06:40:46;-4.18;93.64
65374;SHT31;52070;53.760;9.678;2024-01-10T06:43:15;-4.23;93.75
65374;SHT31;52070;53.760;9.678;2024-01-10T06:45:41;-4.20;93.89
65374;SHT31;52070;53.760;9.678;2024-01-10T06:48:09;-4.22;94.06
65374;SHT31;52070;53.760;9.678;2024-01-10T06:50:36;-4.19;94.19
65374;SHT31;52070;53.760;9.678;2024-01-10T06:53:03;-4.10;94.26
65374;SHT31;52070;53.760;9.678;2024-01-10T06:55:30;-4.12;94.39
65374;SHT31;52070;53.760;9.678;2024-01-10T06:57:57;-4.13;94.48
65374;SHT31;52070;53.760;9.678;2024-01-10T07:00:26;-4.06;94.54
65374;SHT31;52070;53.760;9.678;2024-01-10T07:02:52;-3.99;94.57
65374;SHT31;52070;53.760;9.678;2024-01-10T07:05:19;-3.92;94.59
65374;SHT31;52070;53.760;9.678;2024-01-10T07:07:46;-3.89;94.66
65374;SHT31;52070;53.760;9.678;2024-01-10T07:10:15;-3.85;94.68
65374;SHT31;52070;53.760;9.678;2024-01-10T07:12:42;-3.85;94.68
65374;SHT31;52070;53.760;9.678;2024-01-10T07:15:09;-3.81;94.70
65374;SHT31;52070;53.760;9.678;2024-01-10T07:17:38;-3.81;94.77
65374;SHT31;52070;53.760;9.678;2024-01-10T07:20:07;-3.71;94.82
65374;SHT31;52070;53.760;9.678;2024-01-10T07:22:34;-3.75;94.87
65374;SHT31;52070;53.760;9.678;2024-01-10T07:25:01;-3.73;94.88
65374;SHT31;52070;53.760;9.678;2024-01-10T07:27:29;-3.73;94.92
65374;SHT31;52070;53.760;9.678;2024-01-10T07:29:56;-3.71;94.98
65374;SHT31;52070;53.760;9.678;2024-01-10T07:32:23;-3.70;95.03
65374;SHT31;52070;53.760;9.678;2024-01-10T07:34:51;-3.67;95.05
65374;SHT31;52070;53.760;9.678;2024-01-10T07:37:18;-3.65;95.07
65374;SHT31;52070;53.760;9.678;2024-01-10T07:39:46;-3.64;95.10
65374;SHT31;52070;53.760;9.678;2024-01-10T07:42:13;-3.63;95.10
65374;SHT31;52070;53.760;9.678;2024-01-10T07:44:40;-3.57;95.09
65374;SHT31;52070;53.760;9.678;2024-01-10T07:47:07;-3.51;95.07
65374;SHT31;52070;53.760;9.678;2024-01-10T07:49:34;-3.50;95.14
65374;SHT31;52070;53.760;9.678;2024-01-10T07:52:03;-3.47;95.13
65374;SHT31;52070;53.760;9.678;2024-01-10T07:54:31;-3.44;95.09
65374;SHT31;52070;53.760;9.678;2024-01-10T07:56:58;-3.42;95.11
65374;SHT31;52070;53.760;9.678;2024-01-10T07:59:24;-3.37;95.10
65374;SHT31;52070;53.760;9.678;2024-01-10T08:01:57;-3.36;95.08
65374;SHT31;52070;53.760;9.678;2024-01-10T08:04:24;-3.30;95.06
65374;SHT31;52070;53.760;9.678;2024-01-10T08:06:52;-3.30;95.00
65374;SHT31;52070;53.760;9.678;2024-01-10T08:09:21;-3.30;94.99
65374;SHT31;52070;53.760;9.678;2024-01-10T08:11:49;-3.26;94.94
65374;SHT31;52070;53.760;9.678;2024-01-10T08:14:16;-3.21;94.96
65374;SHT31;52070;53.760;9.678;2024-01-10T08:16:43;-3.14;94.92
65374;SHT31;52070;53.760;9.678;2024-01-10T08:19:10;-3.14;94.89
65374;SHT31;52070;53.760;9.678;2024-01-10T08:21:37;-3.03;94.80
65374;SHT31;52070;53.760;9.678;2024-01-10T08:24:05;-3.02;94.82
65374;SHT31;52070;53.760;9.678;2024-01-10T08:26:34;-2.96;94.72
65374;SHT31;52070;53.760;9.678;2024-01-10T08:29:01;-2.81;94.64
65374;SHT31;52070;53.760;9.678;2024-01-10T08:31:28;-2.82;94.62
65374;SHT31;52070;53.760;9.678;2024-01-10T08:33:55;-2.81;94.55
65374;SHT31;52070;53.760;9.678;2024-01-10T08:36:22;-2.79;94.51
65374;SHT31;52070;53.760;9.678;2024-01-10T08:38:50;-2.81;94.52
65374;SHT31;52070;53.760;9.678;2024-01-10T08:41:18;-2.73;94.49
65374;SHT31;52070;53.760;9.678;2024-01-10T08:43:47;-2.72;94.57
65374;SHT31;52070;53.760;9.678;2024-01-10T08:46:14;-2.68;94.62
65374;SHT31;52070;53.760;9.678;2024-01-10T08:48:41;-2.65;94.57
65374;SHT31;52070;53.760;9.678;2024-01-10T08:51:08;-2.65;94.55
65374;SHT31;52070;53.760;9.678;2024-01-10T08:53:45;-2.64;94.55
65374;SHT31;52070;53.760;9.678;2024-01-10T08:56:19;-2.59;94.53
65374;SHT31;52070;53.760;9.678;2024-01-10T08:58:50;-2.58;94.53
65374;SHT31;52070;53.760;9.678;2024-01-10T09:01:17;-2.51;94.49
65374;SHT31;52070;53.760;9.678;2024-01-10T09:03:45;-2.54;94.43
65374;SHT31;52070;53.760;9.678;2024-01-10T09:06:13;-2.55;94.35
65374;SHT31;52070;53.760;9.678;2024-01-10T09:08:43;-2.59;94.24
65374;SHT31;52070;53.760;9.678;2024-01-10T09:11:10;-2.51;94.23
65374;SHT31;52070;53.760;9.678;2024-01-10T09:13:37;-2.47;94.16
65374;SHT31;52070;53.760;9.678;2024-01-10T09:16:10;-2.40;94.19
65374;SHT31;52070;53.760;9.678;2024-01-10T09:18:37;-2.37;94.17
65374;SHT31;52070;53.760;9.678;2024-01-10T09:21:05;-2.31;94.16
65374;SHT31;52070;53.760;9.678;2024-01-10T09:23:33;-2.24;94.13
65374;SHT31;52070;53.760;9.678;2024-01-10T09:26:00;-2.31;94.09
65374;SHT31;52070;53.760;9.678;2024-01-10T09:28:27;-2.30;93.98
65374;SHT31;52070;53.760;9.678;2024-01-10T09:30:54;-2.30;93.88
65374;SHT31;52070;53.760;9.678;2024-01-10T09:33:22;-2.21;93.80
65374;SHT31;52070;53.760;9.678;2024-01-10T09:35:49;-2.13;93.70
65374;SHT31;52070;53.760;9.678;2024-01-10T09:38:16;-2.10;93.49
65374;SHT31;52070;53.760;9.678;2024-01-10T09:40:44;-2.21;93.31
65374;SHT31;52070;53.760;9.678;2024-01-10T09:43:11;-2.35;93.08
65374;SHT31;52070;53.760;9.678;2024-01-10T09:45:43;-2.37;92.98
65374;SHT31;52070;53.760;9.678;2024-01-10T09:48:13;-2.34;92.98
65374;SHT31;52070;53.760;9.678;2024-01-10T09:50:42;-2.40;93.02
65374;SHT31;52070;53.760;9.678;2024-01-10T09:53:15;-2.20;92.97
65374;SHT31;52070;53.760;9.678;2024-01-10T09:55:48;-2.06;92.97
65374;SHT31;52070;53.760;9.678;2024-01-10T09:58:15;-2.04;92.86
65374;SHT31;52070;53.760;9.678;2024-01-10T10:00:43;-2.00;92.72
65374;SHT31;52070;53.760;9.678;2024-01-10T10:03:11;-1.96;92.55
65374;SHT31;52070;53.760;9.678;2024-01-10T10:05:38;-2.01;92.36
65374;SHT31;52070;53.760;9.678;2024-01-10T10:08:10;-1.91;92.17
65374;SHT31;52070;53.760;9.678;2024-01-10T10:10:38;-1.84;92.05
65374;SHT31;52070;53.760;9.678;2024-01-10T10:13:09;-1.74;91.91
65374;SHT31;52070;53.760;9.678;2024-01-10T10:15:37;-1.63;91.78
65374;SHT31;52070;53.760;9.678;2024-01-10T10:18:04;-1.52;91.67
65374;SHT31;52070;53.760;9.678;2024-01-10T10:20:31;-1.46;91.40
65374;SHT31;52070;53.760;9.678;2024-01-10T10:23:02;-1.42;91.15
65374;SHT31;52070;53.760;9.678;2024-01-10T10:25:32;-1.34;90.37
65374;SHT31;52070;53.760;9.678;2024-01-10T10:28:01;-1.39;89.70
65374;SHT31;52070;53.760;9.678;2024-01-10T10:30:30;-1.52;89.16
65374;SHT31;52070;53.760;9.678;2024-01-10T10:32:57;-1.67;88.88
65374;SHT31;52070;53.760;9.678;2024-01-10T10:35:24;-1.73;89.00
65374;SHT31;52070;53.760;9.678;2024-01-10T10:37:52;-1.63;89.17
65374;SHT31;52070;53.760;9.678;2024-01-10T10:40:22;-1.60;89.25
65374;SHT31;52070;53.760;9.678;2024-01-10T10:42:54;-1.67;89.25
65374;SHT31;52070;53.760;9.678;2024-01-10T10:45:22;-1.58;89.41
65374;SHT31;52070;53.760;9.678;2024-01-10T10:47:57;-1.64;89.51
65374;SHT31;52070;53.760;9.678;2024-01-10T10:50:26;-1.60;89.53
65374;SHT31;52070;53.760;9.678;2024-01-10T10:52:55;-1.51;89.64
65374;SHT31;52070;53.760;9.678;2024-01-10T10:55:22;-1.41;89.66
65374;SHT31;52070;53.760;9.678;2024-01-10T10:57:51;-1.34;89.64
65374;SHT31;52070;53.760;9.678;2024-01-10T11:00:20;-1.27;89.58
65374;SHT31;52070;53.760;9.678;2024-01-10T11:02:53;-1.28;89.43
65374;SHT31;52070;53.760;9.678;2024-01-10T11:05:20;-1.32;88.83
65374;SHT31;52070;53.760;9.678;2024-01-10T11:07:48;-1.29;88.43
65374;SHT31;52070;53.760;9.678;2024-01-10T11:10:20;-1.38;88.42
65374;SHT31;52070;53.760;9.678;2024-01-10T11:12:58;-1.29;88.68
65374;SHT31;52070;53.760;9.678;2024-01-10T11:15:46;-1.25;88.85
65374;SHT31;52070;53.760;9.678;2024-01-10T11:18:32;-1.19;88.76
65374;SHT31;52070;53.760;9.678;2024-01-10T11:21:14;-1.02;88.72
65374;SHT31;52070;53.760;9.678;2024-01-10T11:23:46;-1.01;88.34
65374;SHT31;52070;53.760;9.678;2024-01-10T11:26:15;-1.08;87.93
65374;SHT31;52070;53.760;9.678;2024-01-10T11:28:44;-1.02;87.73
65374;SHT31;52070;53.760;9.678;2024-01-10T11:31:13;-1.09;87.62
65374;SHT31;52070;53.760;9.678;2024-01-10T11:33:41;-1.18;87.52
65374;SHT31;52070;53.760;9.678;2024-01-10T11:36:12;-1.13;87.65
65374;SHT31;52070;53.760;9.678;2024-01-10T11:38:45;-1.15;87.53
65374;SHT31;52070;53.760;9.678;2024-01-10T11:41:20;-1.12;87.57
65374;SHT31;52070;53.760;9.678;2024-01-10T11:46:53;-1.29;87.41
65374;SHT31;52070;53.760;9.678;2024-01-10T11:49:21;-1.27;87.41
65374;SHT31;52070;53.760;9.678;2024-01-10T11:51:52;-1.34;87.39
65374;SHT31;52070;53.760;9.678;2024-01-10T11:54:38;-1.31;87.26
65374;SHT31;52070;53.760;9.678;2024-01-10T11:57:14;-1.36;86.93
65374;SHT31;52070;53.760;9.678;2024-01-10T11:59:42;-1.51;86.81
65374;SHT31;52070;53.760;9.678;2024-01-10T12:02:12;-1.49;86.96
65374;SHT31;52070;53.760;9.678;2024-01-10T12:04:40;-1.55;86.97
65374;SHT31;52070;53.760;9.678;2024-01-10T12:07:07;-1.55;87.35
65374;SHT31;52070;53.760;9.678;2024-01-10T12:09:35;-1.52;87.79
65374;SHT31;52070;53.760;9.678;2024-01-10T12:12:02;-1.56;88.17
65374;SHT31;52070;53.760;9.678;2024-01-10T12:14:30;-1.48;88.33
65374;SHT31;52070;53.760;9.678;2024-01-10T12:16:57;-1.43;88.33
65374;SHT31;52070;53.760;9.678;2024-01-10T12:19:25;-1.31;88.36
65374;SHT31;52070;53.760;9.678;2024-01-10T12:21:53;-1.35;88.25
65374;SHT31;52070;53.760;9.678;2024-01-10T12:24:20;-1.24;88.02
65374;SHT31;52070;53.760;9.678;2024-01-10T12:26:47;-1.09;87.84
65374;SHT31;52070;53.760;9.678;2024-01-10T12:29:17;-1.04;87.36
65374;SHT31;52070;53.760;9.678;2024-01-10T12:31:44;-1.28;87.03
65374;SHT31;52070;53.760;9.678;2024-01-10T12:34:11;-1.41;86.72
65374;SHT31;52070;53.760;9.678;2024-01-10T12:36:41;-1.39;86.82
65374;SHT31;52070;53.760;9.678;2024-01-10T12:39:08;-1.31;87.00
65374;SHT31;52070;53.760;9.678;2024-01-10T12:41:35;-1.28;86.96
65374;SHT31;52070;53.760;9.678;2024-01-10T12:44:03;-1.28;86.89
65374;SHT31;52070;53.760;9.678;2024-01-10T12:46:31;-1.18;86.84
65374;SHT31;52070;53.760;9.678;2024-01-10T12:48:59;-1.38;86.59
65374;SHT31;52070;53.760;9.678;2024-01-10T12:51:28;-1.45;86.62
65374;SHT31;52070;53.760;9.678;2024-01-10T12:53:57;-1.41;86.66
65374;SHT31;52070;53.760;9.678;2024-01-10T12:56:25;-1.34;86.74
65374;SHT31;52070;53.760;9.678;2024-01-10T12:58:53;-1.31;86.60
65374;SHT31;52070;53.760;9.678;2024-01-10T13:01:21;-1.27;86.34
65374;SHT31;52070;53.760;9.678;2024-01-10T13:03:49;-1.39;86.27
65374;SHT31;52070;53.760;9.678;2024-01-10T13:06:16;-1.38;86.31
65374;SHT31;52070;53.760;9.678;2024-01-10T13:08:44;-1.34;86.36
65374;SHT31;52070;53.760;9.678;2024-01-10T13:11:12;-1.24;86.11
65374;SHT31;52070;53.760;9.678;2024-01-10T13:13:40;-1.42;85.89
65374;SHT31;52070;53.760;9.678;2024-01-10T13:16:08;-1.49;86.10
65374;SHT31;52070;53.760;9.678;2024-01-10T13:18:36;-1.46;86.40
65374;SHT31;52070;53.760;9.678;2024-01-10T13:21:04;-1.34;86.50
65374;SHT31;52070;53.760;9.678;2024-01-10T13:23:31;-1.38;86.11
65374;SHT31;52070;53.760;9.678;2024-01-10T13:25:59;-1.38;86.18
65374;SHT31;52070;53.760;9.678;2024-01-10T13:28:27;-1.34;86.31
65374;SHT31;52070;53.760;9.678;2024-01-10T13:30:55;-1.31;86.32
65374;SHT31;52070;53.760;9.678;2024-01-10T13:33:23;-1.38;85.81
65374;SHT31;52070;53.760;9.678;2024-01-10T13:35:51;-1.45;85.87
65374;SHT31;52070;53.760;9.678;2024-01-10T13:38:18;-1.43;85.89
65374;SHT31;52070;53.760;9.678;2024-01-10T13:40:46;-1.48;85.83
65374;SHT31;52070;53.760;9.678;2024-01-10T13:43:13;-1.56;85.82
65374;SHT31;52070;53.760;9.678;2024-01-10T13:45:42;-1.59;85.94
65374;SHT31;52070;53.760;9.678;2024-01-10T13:48:09;-1.63;86.12
65374;SHT31;52070;53.760;9.678;2024-01-10T13:50:36;-1.58;86.02
65374;SHT31;52070;53.760;9.678;2024-01-10T13:53:03;-1.60;86.08
65374;SHT31;52070;53.760;9.678;2024-01-10T13:55:31;-1.79;86.14
65374;SHT31;52070;53.760;9.678;2024-01-10T13:57:58;-1.77;86.36
65374;SHT31;52070;53.760;9.678;2024-01-10T14:00:25;-1.73;86.31
65374;SHT31;52070;53.760;9.678;2024-01-10T14:02:54;-1.77;86.38
65374;SHT31;52070;53.760;9.678;2024-01-10T14:05:26;-1.86;86.48
65374;SHT31;52070;53.760;9.678;2024-01-10T14:07:53;-1.80;86.53
65374;SHT31;52070;53.760;9.678;2024-01-10T14:10:20;-1.83;86.48
65374;SHT31;52070;53.760;9.678;2024-01-10T14:12:48;-1.96;86.56
65374;SHT31;52070;53.760;9.678;2024-01-10T14:15:15;-1.93;86.86
65374;SHT31;52070;53.760;9.678;2024-01-10T14:17:42;-1.93;87.08
65374;SHT31;52070;53.760;9.678;2024-01-10T14:20:10;-1.89;87.16
65374;SHT31;52070;53.760;9.678;2024-01-10T14:22:43;-1.80;87.15
65374;SHT31;52070;53.760;9.678;2024-01-10T14:25:10;-1.77;87.13
65374;SHT31;52070;53.760;9.678;2024-01-10T14:27:38;-1.80;86.98
65374;SHT31;52070;53.760;9.678;2024-01-10T14:30:06;-1.86;87.09
65374;SHT31;52070;53.760;9.678;2024-01-10T14:32:35;-1.86;87.22
65374;SHT31;52070;53.760;9.678;2024-01-10T14:35:03;-1.82;87.30
65374;SHT31;52070;53.760;9.678;2024-01-10T14:37:33;-1.73;87.32
65374;SHT31;52070;53.760;9.678;2024-01-10T14:40:02;-1.64;87.00
65374;SHT31;52070;53.760;9.678;2024-01-10T14:42:30;-1.70;86.66
65374;SHT31;52070;53.760;9.678;2024-01-10T14:44:59;-1.79;86.41
65374;SHT31;52070;53.760;9.678;2024-01-10T14:47:26;-1.89;86.47
65374;SHT31;52070;53.760;9.678;2024-01-10T14:49:54;-1.89;86.66
65374;SHT31;52070;53.760;9.678;2024-01-10T14:52:20;-1.90;86.72
65374;SHT31;52070;53.760;9.678;2024-01-10T14:54:49;-1.89;86.71
65374;SHT31;52070;53.760;9.678;2024-01-10T14:57:16;-2.00;86.74
65374;SHT31;52070;53.760;9.678;2024-01-10T14:59:43;-2.03;87.09
65374;SHT31;52070;53.760;9.678;2024-01-10T15:02:10;-2.11;87.25
65374;SHT31;52070;53.760;9.678;2024-01-10T15:04:37;-2.15;87.45
65374;SHT31;52070;53.760;9.678;2024-01-10T15:07:05;-2.04;87.66
65374;SHT31;52070;53.760;9.678;2024-01-10T15:09:32;-2.11;87.70
65374;SHT31;52070;53.760;9.678;2024-01-10T15:12:04;-2.21;87.97
65374;SHT31;52070;53.760;9.678;2024-01-10T15:14:33;-2.15;88.19
65374;SHT31;52070;53.760;9.678;2024-01-10T15:17:00;-2.18;88.25
65374;SHT31;52070;53.760;9.678;2024-01-10T15:19:30;-2.17;88.22
65374;SHT31;52070;53.760;9.678;2024-01-10T15:21:57;-2.23;88.22
65374;SHT31;52070;53.760;9.678;2024-01-10T15:24:25;-2.20;88.37
65374;SHT31;52070;53.760;9.678;2024-01-10T15:26:52;-2.21;88.46
65374;SHT31;52070;53.760;9.678;2024-01-10T15:29:20;-2.15;88.48
65374;SHT31;52070;53.760;9.678;2024-01-10T15:31:47;-2.26;88.40
65374;SHT31;52070;53.760;9.678;2024-01-10T15:34:14;-2.27;88.47
65374;SHT31;52070;53.760;9.678;2024-01-10T15:36:41;-2.21;88.60